Time;durP1;ratioP1;P1;durP2;ratioP2;P2;SDS_P1;SDS_P2;PMS_P1;PMS_P2;Temp;Humidity;BMP_temperature;BMP_pressure;BME280_temperature;BME280_humidity;BME280_pressure;Samples;Min_cycle;Max_cycle;Signal;HPM_P1;HPM_P2
2021/11/18 00:02:02;;;;;;;14.70;7.13;;;;;;;17.57;68.32;101825.53;5101655;28;20039;-68
2021/11/18 00:04:31;;;;;;;16.67;7.32;;;;;;;17.62;68.14;101829.13;5094269;28;20046;-67
2021/11/18 00:06:59;;;;;;;19.85;7.63;;;;;;;17.65;68.18;101827.41;5108531;28;20043;-67
2021/11/18 00:09:29;;;;;;;13.52;6.43;;;;;;;17.70;68.08;101827.41;5109933;28;20465;-67
2021/11/18 00:11:57;;;;;;;15.43;7.70;;;;;;;17.72;68.04;101820.28;5090729;28;20442;-68
2021/11/18 00:14:25;;;;;;;16.95;7.43;;;;;;;17.73;68.07;101822.06;5091604;28;20426;-67
2021/11/18 00:16:53;;;;;;;16.60;7.22;;;;;;;17.72;68.20;101826.50;5089595;28;20044;-67
2021/11/18 00:19:22;;;;;;;13.90;6.50;;;;;;;17.72;68.31;101836.31;5095683;28;20076;-67
2021/11/18 00:21:49;;;;;;;14.52;6.88;;;;;;;17.70;68.61;101827.41;5098636;28;20535;-67
2021/11/18 00:24:17;;;;;;;13.68;6.85;;;;;;;17.68;68.91;101832.72;5108615;27;20046;-68
2021/11/18 00:26:54;;;;;;;17.13;6.78;;;;;;;17.66;69.08;101839.84;5106426;27;20480;-67
2021/11/18 00:29:22;;;;;;;15.82;7.45;;;;;;;17.62;69.39;101834.47;5073191;28;20531;-68
2021/11/18 00:31:49;;;;;;;14.88;7.60;;;;;;;17.60;69.67;101847.78;5091622;28;20140;-68
2021/11/18 00:34:19;;;;;;;16.02;7.30;;;;;;;17.58;69.75;101838.91;5094589;28;20044;-68
2021/11/18 00:36:48;;;;;;;13.70;6.88;;;;;;;17.57;70.06;101838.88;5072552;28;20093;-68
2021/11/18 00:39:16;;;;;;;15.40;6.90;;;;;;;17.52;70.32;101839.75;5107020;28;20032;-68
2021/11/18 00:41:44;;;;;;;12.75;7.53;;;;;;;17.50;70.36;101841.53;5108712;28;20447;-68
2021/11/18 00:44:13;;;;;;;12.45;6.90;;;;;;;17.52;70.55;101839.75;5102288;28;20039;-68
2021/11/18 00:46:41;;;;;;;14.57;7.53;;;;;;;17.49;70.85;101839.75;5084565;28;20039;-68
2021/11/18 00:49:10;;;;;;;12.98;6.95;;;;;;;17.47;70.96;101829.94;5087893;28;20127;-68
2021/11/18 00:51:39;;;;;;;17.73;6.65;;;;;;;17.46;71.06;101831.69;5088377;28;20576;-68
2021/11/18 00:54:09;;;;;;;15.40;7.28;;;;;;;17.44;71.11;101824.59;5088060;28;20138;-68
2021/11/18 00:56:37;;;;;;;21.50;6.78;;;;;;;17.43;71.21;101829.03;5095136;27;20488;-68
2021/11/18 00:59:09;;;;;;;12.32;6.53;;;;;;;17.44;71.25;101832.59;5088074;28;20385;-68
2021/11/18 01:01:43;;;;;;;12.80;7.05;;;;;;;17.42;71.44;101824.56;5088062;28;20637;-68
2021/11/18 01:04:14;;;;;;;16.80;6.43;;;;;;;17.41;71.32;101822.78;5099255;28;20114;-68
2021/11/18 01:06:41;;;;;;;16.38;7.80;;;;;;;17.39;71.51;101840.56;5108376;27;20556;-68
2021/11/18 01:09:10;;;;;;;16.92;6.13;;;;;;;17.37;71.57;101834.34;5101543;28;20031;-69
2021/11/18 01:11:38;;;;;;;15.13;6.93;;;;;;;17.36;71.57;101826.31;5092337;28;20389;-68
2021/11/18 01:14:08;;;;;;;13.80;6.95;;;;;;;17.36;71.58;101837.91;5109057;28;20054;-68
2021/11/18 01:16:40;;;;;;;11.20;5.90;;;;;;;17.39;71.64;101840.56;5107158;28;20101;-68
2021/11/18 01:19:09;;;;;;;12.30;6.38;;;;;;;17.39;71.60;101831.69;5106458;28;20094;-67
2021/11/18 01:21:37;;;;;;;12.00;6.05;;;;;;;17.41;71.71;101835.25;5088767;28;20064;-68
2021/11/18 01:24:07;;;;;;;11.07;5.60;;;;;;;17.42;71.74;101831.69;5088688;28;20032;-68
2021/11/18 01:26:53;;;;;;;11.35;5.90;;;;;;;17.41;71.68;101836.13;5089518;28;20067;-67
2021/11/18 01:29:25;;;;;;;13.43;7.18;;;;;;;17.41;71.79;101844.16;5087760;28;20037;-68
2021/11/18 01:31:55;;;;;;;13.98;6.07;;;;;;;17.43;71.83;101834.38;5089096;28;20050;-67
2021/11/18 01:34:24;;;;;;;15.80;6.90;;;;;;;17.41;71.97;101836.13;5087605;28;20055;-68
2021/11/18 01:36:51;;;;;;;12.43;5.47;;;;;;;17.43;72.03;101838.81;5087614;28;20398;-68
2021/11/18 01:39:19;;;;;;;13.43;6.30;;;;;;;17.45;71.91;101843.31;5088780;28;20048;-68
2021/11/18 01:41:48;;;;;;;10.45;5.68;;;;;;;17.44;71.89;101838.84;5074625;28;20044;-68
2021/11/18 01:44:22;;;;;;;12.48;5.78;;;;;;;17.44;71.90;101828.16;5088751;28;20039;-68
2021/11/18 01:46:49;;;;;;;17.02;7.63;;;;;;;17.45;71.83;101831.72;5090720;28;20040;-68
2021/11/18 01:49:27;;;;;;;14.38;6.07;;;;;;;17.46;71.73;101834.38;5106291;28;20044;-68
2021/11/18 01:51:58;;;;;;;12.40;6.15;;;;;;;17.45;71.74;101832.63;5097756;28;20048;-68
2021/11/18 01:54:28;;;;;;;11.77;6.18;;;;;;;17.46;71.57;101834.38;5108765;27;20059;-67
2021/11/18 01:56:58;;;;;;;12.25;6.72;;;;;;;17.48;71.43;101834.38;5091879;28;20044;-67
2021/11/18 01:59:29;;;;;;;15.55;6.63;;;;;;;17.48;71.41;101829.03;5076010;28;20063;-68
2021/11/18 02:02:32;;;;;;;14.57;6.47;;;;;;;17.49;71.21;101828.16;5027597;28;20192;-68
2021/11/18 02:05:22;;;;;;;12.80;6.25;;;;;;;17.52;71.05;101833.53;5074753;28;20672;-68
2021/11/18 02:07:59;;;;;;;10.18;5.43;;;;;;;17.52;70.99;101830.88;5090420;28;20043;-68
2021/11/18 02:10:38;;;;;;;11.75;5.90;;;;;;;17.52;70.93;101839.75;5109854;27;20043;-68
2021/11/18 02:13:08;;;;;;;15.15;6.05;;;;;;;17.52;70.95;101841.56;5096536;28;20112;-68
2021/11/18 02:15:38;;;;;;;16.50;6.22;;;;;;;17.52;70.76;101837.06;5100085;27;20460;-68
2021/11/18 02:18:15;;;;;;;13.15;6.10;;;;;;;17.53;70.66;101830.84;5108940;28;20088;-68
2021/11/18 02:20:48;;;;;;;14.98;5.35;;;;;;;17.54;70.70;101827.28;5102838;28;20047;-68
2021/11/18 02:23:18;;;;;;;14.70;6.15;;;;;;;17.54;70.60;101829.06;5109413;27;20039;-68
2021/11/18 02:25:49;;;;;;;13.07;5.65;;;;;;;17.56;70.46;101824.63;5099563;28;20451;-67
2021/11/18 02:28:17;;;;;;;12.75;6.65;;;;;;;17.57;70.42;101833.53;5090609;28;20044;-67
2021/11/18 02:30:44;;;;;;;16.92;8.35;;;;;;;17.58;70.36;101833.56;5099182;28;20040;-68
2021/11/18 02:33:14;;;;;;;13.27;6.40;;;;;;;17.60;70.26;101820.19;5096613;28;20036;-67
2021/11/18 02:35:47;;;;;;;14.35;6.13;;;;;;;17.59;70.16;101816.63;5096178;28;20059;-68
2021/11/18 02:38:17;;;;;;;12.73;6.70;;;;;;;17.61;70.18;101816.66;5090674;28;20123;-67
2021/11/18 02:40:46;;;;;;;14.90;6.72;;;;;;;17.62;70.07;101818.47;5074020;28;20036;-68
2021/11/18 02:43:17;;;;;;;12.15;5.50;;;;;;;17.63;69.90;101814.91;5094427;28;20040;-67
2021/11/18 02:45:47;;;;;;;12.38;6.03;;;;;;;17.63;69.86;101818.47;5100944;28;20044;-68
2021/11/18 02:48:15;;;;;;;15.85;6.13;;;;;;;17.62;69.85;101814.00;5093262;27;20492;-67
2021/11/18 02:50:46;;;;;;;15.82;6.80;;;;;;;17.64;69.81;101806.00;5096403;28;20040;-68
2021/11/18 02:53:17;;;;;;;13.30;7.07;;;;;;;17.66;69.64;101804.22;5097835;28;20119;-67
2021/11/18 02:55:47;;;;;;;16.65;6.72;;;;;;;17.67;69.68;101811.34;5090535;28;20055;-67
2021/11/18 02:58:16;;;;;;;18.35;6.10;;;;;;;17.66;69.53;101805.13;5090525;28;20392;-67
2021/11/18 03:00:50;;;;;;;13.43;6.97;;;;;;;17.68;69.55;101810.47;5097017;27;20114;-68
2021/11/18 03:03:19;;;;;;;11.57;5.07;;;;;;;17.69;69.49;101809.59;5104715;28;20036;-68
2021/11/18 03:05:48;;;;;;;11.90;7.25;;;;;;;17.68;69.44;101802.44;5108654;28;20054;-68
2021/11/18 03:08:18;;;;;;;13.70;6.55;;;;;;;17.67;69.40;101806.00;5087209;28;20085;-67
2021/11/18 03:10:47;;;;;;;15.73;5.93;;;;;;;17.67;69.27;101806.00;5103873;28;20048;-68
2021/11/18 03:13:15;;;;;;;14.90;6.15;;;;;;;17.66;69.13;101806.88;5090237;28;20032;-67
2021/11/18 03:15:43;;;;;;;14.45;5.65;;;;;;;17.62;69.07;101803.34;5089859;28;20040;-67
2021/11/18 03:18:11;;;;;;;12.65;5.78;;;;;;;17.63;68.99;101798.88;5091369;28;20044;-67
2021/11/18 03:20:41;;;;;;;9.95;5.38;;;;;;;17.64;68.90;101803.34;5091483;27;20044;-67
2021/11/18 03:23:09;;;;;;;12.30;5.00;;;;;;;17.63;68.78;101799.78;5091017;28;20097;-67
2021/11/18 03:25:39;;;;;;;15.18;5.68;;;;;;;17.65;68.61;101805.13;5110406;28;20047;-68
2021/11/18 03:28:18;;;;;;;13.68;6.05;;;;;;;17.65;68.58;101800.69;5095558;28;20049;-67
2021/11/18 03:30:48;;;;;;;11.35;5.43;;;;;;;17.64;68.50;101811.34;5106252;28;20116;-68
2021/11/18 03:33:18;;;;;;;11.35;6.10;;;;;;;17.66;68.37;101809.56;5108136;28;20058;-67
2021/11/18 03:35:48;;;;;;;14.50;6.05;;;;;;;17.66;68.38;101813.13;5095239;28;20492;-67
2021/11/18 03:38:16;;;;;;;16.00;6.03;;;;;;;17.67;68.29;101817.59;5091584;28;20166;-67
2021/11/18 03:40:50;;;;;;;10.40;5.10;;;;;;;17.69;68.15;101821.16;5109673;28;20042;-68
2021/11/18 03:43:21;;;;;;;11.27;5.35;;;;;;;17.69;68.16;101821.16;5098997;27;20094;-67
2021/11/18 03:45:50;;;;;;;12.10;5.95;;;;;;;17.70;68.10;101822.06;5089575;28;20048;-68
2021/11/18 03:48:19;;;;;;;10.27;5.30;;;;;;;17.68;67.92;101827.38;5106736;28;20577;-68
2021/11/18 03:50:48;;;;;;;9.63;4.78;;;;;;;17.68;67.85;101819.38;5095847;28;20055;-67
2021/11/18 03:53:17;;;;;;;13.52;6.38;;;;;;;17.69;67.84;101820.28;5090341;28;20044;-67
2021/11/18 03:55:46;;;;;;;13.63;5.55;;;;;;;17.69;67.78;101826.50;5089069;28;20051;-67
2021/11/18 03:58:15;;;;;;;13.35;4.75;;;;;;;17.70;67.72;101827.41;5091108;28;20040;-67
2021/11/18 04:00:44;;;;;;;12.20;5.20;;;;;;;17.70;67.67;101838.09;5076145;28;20040;-67
2021/11/18 04:03:13;;;;;;;12.77;5.60;;;;;;;17.72;67.59;101836.31;5092747;28;20036;-67
2021/11/18 04:05:42;;;;;;;14.77;5.53;;;;;;;17.71;67.57;101830.09;5088978;28;20290;-68
2021/11/18 04:08:12;;;;;;;13.50;5.40;;;;;;;17.71;67.33;101834.53;5090324;28;20048;-68
2021/11/18 04:10:41;;;;;;;9.95;4.50;;;;;;;17.71;67.33;101835.44;5071695;28;20518;-68
2021/11/18 04:13:10;;;;;;;13.98;5.38;;;;;;;17.72;67.31;101836.31;5089458;28;20040;-68
2021/11/18 04:15:42;;;;;;;12.48;5.00;;;;;;;17.73;67.22;101844.31;5088606;27;20071;-68
2021/11/18 04:18:15;;;;;;;12.38;4.85;;;;;;;17.73;67.16;101844.31;5098911;28;20439;-67
2021/11/18 04:20:43;;;;;;;12.85;5.30;;;;;;;17.74;67.03;101845.22;5099627;28;20047;-68
2021/11/18 04:23:11;;;;;;;11.77;5.07;;;;;;;17.75;67.01;101852.34;5109052;28;20031;-67
2021/11/18 04:25:40;;;;;;;12.73;5.20;;;;;;;17.73;66.83;101854.09;5107860;28;20039;-67
2021/11/18 04:28:10;;;;;;;8.90;4.47;;;;;;;17.71;66.67;101855.91;5106413;28;20057;-67
2021/11/18 04:30:42;;;;;;;11.88;5.13;;;;;;;17.73;66.63;101859.44;5100055;28;20040;-67
2021/11/18 04:33:23;;;;;;;13.23;5.10;;;;;;;17.74;66.50;101864.81;5088954;28;20064;-67
2021/11/18 04:35:51;;;;;;;11.18;5.00;;;;;;;17.72;66.34;101863.03;5093135;28;20047;-67
2021/11/18 04:38:22;;;;;;;9.52;5.20;;;;;;;17.72;66.44;101863.88;5108338;28;20627;-68
2021/11/18 04:40:50;;;;;;;11.10;5.20;;;;;;;17.72;66.36;101871.91;5091961;28;20426;-68
2021/11/18 04:43:19;;;;;;;13.82;4.30;;;;;;;17.74;66.29;101879.94;5104598;28;20100;-68
2021/11/18 04:45:52;;;;;;;9.63;4.28;;;;;;;17.76;66.26;101880.84;5106613;28;20039;-67
2021/11/18 04:48:20;;;;;;;11.65;5.10;;;;;;;17.74;66.26;101879.94;5107867;28;20040;-67
2021/11/18 04:50:48;;;;;;;9.27;4.97;;;;;;;17.74;66.23;101885.28;5105759;28;20251;-67
2021/11/18 04:53:16;;;;;;;11.15;4.35;;;;;;;17.76;66.29;101878.16;5108210;28;20043;-67
2021/11/18 04:55:44;;;;;;;10.85;5.25;;;;;;;17.76;66.20;101887.06;5106939;28;20052;-67
2021/11/18 04:58:13;;;;;;;12.25;5.20;;;;;;;17.76;66.25;101883.50;5106925;28;20502;-67
2021/11/18 05:00:46;;;;;;;11.30;5.55;;;;;;;17.77;66.28;101893.31;5088048;28;20479;-67
2021/11/18 05:03:18;;;;;;;10.65;5.03;;;;;;;17.77;66.25;101886.19;5087770;28;20061;-68
2021/11/18 05:05:47;;;;;;;8.50;4.20;;;;;;;17.77;66.27;101893.31;5093177;28;20617;-68
2021/11/18 05:08:16;;;;;;;10.80;4.43;;;;;;;17.78;66.27;101896.00;5089380;28;20040;-68
2021/11/18 05:10:46;;;;;;;9.27;4.07;;;;;;;17.79;66.26;101888.84;5098598;28;20542;-67
2021/11/18 05:13:18;;;;;;;11.48;4.82;;;;;;;17.80;66.25;101895.97;5103675;28;20043;-67
2021/11/18 05:15:58;;;;;;;12.05;5.70;;;;;;;17.79;66.19;101897.75;5098347;28;20042;-68
2021/11/18 05:18:30;;;;;;;10.00;4.72;;;;;;;17.81;66.20;101897.78;5103564;28;20035;-67
2021/11/18 05:21:00;;;;;;;8.98;4.57;;;;;;;17.81;66.08;101898.66;5091043;28;20048;-67
2021/11/18 05:23:28;;;;;;;9.32;4.13;;;;;;;17.80;65.92;101898.66;5087685;28;20063;-68
2021/11/18 05:26:02;;;;;;;11.38;4.75;;;;;;;17.78;66.04;101906.69;5095223;28;20051;-68
2021/11/18 05:28:31;;;;;;;9.38;4.53;;;;;;;17.82;65.94;101902.22;5096671;28;20499;-67
2021/11/18 05:31:02;;;;;;;9.63;4.28;;;;;;;17.85;65.96;101912.94;5106867;28;20086;-68
2021/11/18 05:33:33;;;;;;;14.20;4.63;;;;;;;17.87;65.89;101912.06;5090432;28;20385;-68
2021/11/18 05:36:06;;;;;;;9.70;4.65;;;;;;;17.87;65.74;101917.38;5099034;28;20487;-68
2021/11/18 05:38:35;;;;;;;9.80;4.65;;;;;;;17.89;65.76;101915.63;5104136;28;20036;-67
2021/11/18 05:41:03;;;;;;;11.55;4.38;;;;;;;17.92;65.66;101914.72;5100401;28;20047;-68
2021/11/18 05:43:32;;;;;;;9.05;4.78;;;;;;;17.95;65.51;101920.09;5108036;28;20092;-67
2021/11/18 05:46:00;;;;;;;12.43;4.75;;;;;;;17.97;65.59;101918.34;5097907;28;20119;-67
2021/11/18 05:48:32;;;;;;;10.10;4.88;;;;;;;17.99;65.41;101921.88;5106029;28;20075;-67
2021/11/18 05:51:01;;;;;;;14.30;4.95;;;;;;;18.01;65.27;101925.47;5105931;28;20046;-68
2021/11/18 05:53:33;;;;;;;10.98;4.97;;;;;;;18.04;65.17;101920.16;5107099;28;20040;-67
2021/11/18 05:56:03;;;;;;;8.35;4.10;;;;;;;18.05;65.03;101921.03;5088309;28;20044;-67
2021/11/18 05:58:33;;;;;;;10.27;5.57;;;;;;;18.07;65.13;101930.84;5087419;28;20047;-68
2021/11/18 06:01:01;;;;;;;15.95;6.57;;;;;;;18.10;65.05;101929.97;5101970;28;20123;-67
2021/11/18 06:03:29;;;;;;;9.63;4.70;;;;;;;18.12;64.91;101928.16;5092193;28;20476;-68
2021/11/18 06:05:58;;;;;;;8.55;4.75;;;;;;;18.12;64.98;101929.06;5087225;28;20518;-67
2021/11/18 06:08:26;;;;;;;10.18;4.57;;;;;;;18.12;65.06;101929.06;5091096;28;20047;-67
2021/11/18 06:10:54;;;;;;;12.35;5.65;;;;;;;18.14;65.04;101926.41;5092059;27;20067;-67
2021/11/18 06:13:23;;;;;;;11.25;5.22;;;;;;;18.13;65.01;101932.63;5106165;28;20096;-67
2021/11/18 06:15:51;;;;;;;10.00;4.68;;;;;;;18.14;65.07;101934.41;5107573;28;20495;-67
2021/11/18 06:18:20;;;;;;;9.88;3.70;;;;;;;18.11;64.80;101938.00;5095511;28;20044;-67
2021/11/18 06:20:48;;;;;;;10.43;3.78;;;;;;;18.11;64.88;101937.09;5087218;28;20037;-67
2021/11/18 06:23:17;;;;;;;9.10;4.07;;;;;;;18.11;64.75;101934.44;5105702;28;20403;-68
2021/11/18 06:25:46;;;;;;;8.75;3.67;;;;;;;18.13;64.60;101941.53;5092721;28;20081;-67
2021/11/18 06:28:14;;;;;;;9.95;3.72;;;;;;;18.14;64.39;101937.09;5089359;28;20041;-67
2021/11/18 06:30:45;;;;;;;11.80;4.13;;;;;;;18.14;64.30;101937.09;5105478;28;20128;-67
2021/11/18 06:33:14;;;;;;;18.42;7.43;;;;;;;18.13;64.34;101941.53;5096449;28;20044;-67
2021/11/18 06:35:43;;;;;;;10.18;5.93;;;;;;;18.15;64.04;101941.56;5089518;28;20499;-68
2021/11/18 06:38:12;;;;;;;8.60;4.03;;;;;;;18.15;64.18;101947.78;5073819;28;20040;-68
2021/11/18 06:40:41;;;;;;;12.45;4.85;;;;;;;18.18;64.03;101944.25;5090547;28;20436;-68
2021/11/18 06:43:09;;;;;;;9.48;4.20;;;;;;;18.22;64.10;101944.25;5083512;28;20046;-68
2021/11/18 06:45:45;;;;;;;11.45;4.25;;;;;;;18.22;63.89;101951.38;5106843;28;20067;-67
2021/11/18 06:48:18;;;;;;;6.57;3.78;;;;;;;18.20;63.33;101947.81;5093412;28;20557;-68
2021/11/18 06:50:53;;;;;;;10.77;4.53;;;;;;;18.17;63.46;101947.81;5111128;28;20036;-67
2021/11/18 06:53:21;;;;;;;11.40;5.35;;;;;;;18.17;63.46;101953.16;5108509;28;20043;-67
2021/11/18 06:55:50;;;;;;;8.90;4.15;;;;;;;18.21;63.47;101952.25;5096812;28;20113;-67
2021/11/18 06:58:18;;;;;;;9.27;4.13;;;;;;;18.23;63.51;101961.19;5095584;28;20492;-68
2021/11/18 07:00:46;;;;;;;9.48;4.03;;;;;;;18.26;63.53;101954.06;5097460;28;20042;-68
2021/11/18 07:03:14;;;;;;;9.32;4.43;;;;;;;18.32;63.54;101954.06;5100713;27;20514;-68
2021/11/18 07:05:42;;;;;;;12.35;4.80;;;;;;;18.38;63.39;101963.03;5082757;28;20045;-68
2021/11/18 07:08:11;;;;;;;9.52;4.03;;;;;;;18.43;63.34;101958.59;5081339;28;20046;-68
2021/11/18 07:10:41;;;;;;;10.13;4.05;;;;;;;18.45;63.28;101970.16;5082769;28;20131;-68
2021/11/18 07:13:16;;;;;;;6.90;3.38;;;;;;;18.48;63.51;101960.38;5074951;28;20040;-68
2021/11/18 07:15:45;;;;;;;9.43;3.70;;;;;;;18.46;63.31;101963.91;5081628;28;20044;-67
2021/11/18 07:18:16;;;;;;;10.23;3.83;;;;;;;18.46;63.35;101966.59;5080640;28;20403;-67
2021/11/18 07:20:44;;;;;;;10.38;4.05;;;;;;;18.52;63.44;101971.94;5084133;28;20114;-67
2021/11/18 07:23:13;;;;;;;15.60;5.07;;;;;;;18.59;63.48;101968.44;5081909;28;20032;-68
2021/11/18 07:25:48;;;;;;;8.55;3.90;;;;;;;18.67;63.31;101970.25;5089756;28;20048;-68
2021/11/18 07:28:20;;;;;;;10.05;3.97;;;;;;;18.82;63.17;101972.06;5106481;27;20040;-67
2021/11/18 07:30:48;;;;;;;7.82;4.00;;;;;;;18.93;63.20;101981.00;5088445;28;20123;-68
2021/11/18 07:33:18;;;;;;;7.35;4.00;;;;;;;18.98;63.00;101979.19;5090215;28;20066;-67
2021/11/18 07:35:47;;;;;;;10.68;3.83;;;;;;;19.04;62.87;101979.19;5102802;28;20177;-67
2021/11/18 07:38:17;;;;;;;9.18;4.28;;;;;;;19.09;62.98;101985.47;5086493;28;20040;-69
2021/11/18 07:40:47;;;;;;;12.30;5.75;;;;;;;19.15;62.49;101994.38;5076825;28;20040;-67
2021/11/18 07:43:23;;;;;;;8.27;4.22;;;;;;;19.17;62.33;101989.91;5074829;28;20101;-67
2021/11/18 07:45:56;;;;;;;7.05;3.47;;;;;;;19.19;62.13;101996.16;5082260;28;20040;-68
2021/11/18 07:48:51;;;;;;;10.88;3.67;;;;;;;19.21;62.00;101995.28;5068386;28;20048;-68
2021/11/18 07:51:25;;;;;;;7.95;3.60;;;;;;;19.24;62.30;101989.00;5072025;28;20040;-68
2021/11/18 07:53:54;;;;;;;8.75;3.95;;;;;;;19.31;62.08;101996.16;5106109;28;20048;-67
2021/11/18 07:56:25;;;;;;;7.80;3.78;;;;;;;19.33;61.69;101992.59;5086183;28;20055;-68
2021/11/18 07:58:54;;;;;;;9.48;4.22;;;;;;;19.33;61.51;101989.91;5087470;28;20039;-67
2021/11/18 08:01:25;;;;;;;9.55;3.92;;;;;;;19.31;61.19;101990.78;5085802;28;20033;-67
2021/11/18 08:03:53;;;;;;;7.82;3.97;;;;;;;19.30;61.10;101992.56;5097645;28;20040;-67
2021/11/18 08:06:44;;;;;;;9.00;3.90;;;;;;;19.30;60.87;101992.56;5088970;27;20037;-68
2021/11/18 08:09:14;;;;;;;7.18;4.15;;;;;;;19.28;60.68;101983.69;5088753;28;20469;-68
2021/11/18 08:11:48;;;;;;;10.55;4.13;;;;;;;19.29;61.07;101995.28;5087428;28;20047;-68
2021/11/18 08:14:18;;;;;;;7.10;3.03;;;;;;;19.29;60.81;101989.94;5072610;28;20079;-68
2021/11/18 08:16:49;;;;;;;12.45;3.78;;;;;;;19.29;60.41;101981.91;5070632;28;20041;-68
2021/11/18 08:19:18;;;;;;;9.38;3.47;;;;;;;19.32;60.60;101971.16;5053673;28;20132;-68
2021/11/18 08:21:50;;;;;;;10.07;4.07;;;;;;;19.34;60.32;101972.06;5099737;28;20048;-67
2021/11/18 08:24:23;;;;;;;;;;;;;;;19.34;60.15;101981.00;5084404;28;20722;-68
2021/11/18 08:26:53;;;;;;;10.15;3.95;;;;;;;19.31;60.04;101983.66;5081479;28;19920;-67
2021/11/18 08:29:25;;;;;;;11.73;4.18;;;;;;;19.36;60.04;101981.00;5095961;28;20128;-68
2021/11/18 08:31:58;;;;;;;10.45;4.60;;;;;;;19.41;60.14;101979.19;5068191;28;20055;-68
2021/11/18 08:34:55;;;;;;;9.05;4.15;;;;;;;19.45;59.93;101983.66;5066120;28;20052;-67
2021/11/18 08:37:22;;;;;;;8.82;3.70;;;;;;;19.46;59.72;101972.97;5077483;28;20109;-68
2021/11/18 08:39:52;;;;;;;6.03;3.40;;;;;;;19.49;59.46;101975.63;5069016;28;20044;-68
2021/11/18 08:42:23;;;;;;;8.60;3.85;;;;;;;19.52;59.28;101969.38;5074008;28;20121;-69
2021/11/18 08:44:59;;;;;;;8.43;4.18;;;;;;;19.56;59.09;101975.66;5074919;28;20040;-68
2021/11/18 08:47:30;;;;;;;7.50;4.17;;;;;;;19.62;58.93;101973.84;5055273;28;20474;-69
2021/11/18 08:49:58;;;;;;;9.48;4.07;;;;;;;19.69;59.01;101966.69;5093542;28;20120;-68
2021/11/18 08:52:28;;;;;;;8.32;3.72;;;;;;;19.74;58.82;101963.09;5079604;28;20044;-69
2021/11/18 08:54:59;;;;;;;11.90;4.75;;;;;;;19.77;58.65;101960.38;5087508;27;20460;-68
2021/11/18 08:57:28;;;;;;;8.95;4.65;;;;;;;19.75;58.37;101972.03;5078655;28;20083;-69
2021/11/18 09:00:20;;;;;;;8.90;4.47;;;;;;;19.70;58.19;101963.97;5085567;28;20039;-68
2021/11/18 09:03:15;;;;;;;14.77;4.90;;;;;;;19.65;58.22;101968.47;5075096;28;20032;-69
2021/11/18 09:05:45;;;;;;;9.50;4.22;;;;;;;19.66;58.15;101967.56;5081360;28;20036;-69
2021/11/18 09:08:13;;;;;;;8.05;4.95;;;;;;;19.72;58.04;101963.97;5102118;28;20119;-68
2021/11/18 09:10:46;;;;;;;7.63;4.35;;;;;;;19.75;57.86;101964.88;5087431;28;20415;-69
2021/11/18 09:13:15;;;;;;;8.23;3.97;;;;;;;19.82;57.71;101955.91;5076945;28;20064;-68
2021/11/18 09:15:45;;;;;;;8.52;4.10;;;;;;;19.78;57.38;101951.47;5066684;28;20037;-68
2021/11/18 09:18:15;;;;;;;7.68;4.25;;;;;;;19.78;57.45;101961.28;5065871;28;20040;-69
2021/11/18 09:20:51;;;;;;;8.68;4.47;;;;;;;19.80;57.43;101954.13;5071420;28;20051;-69
2021/11/18 09:23:21;;;;;;;11.38;5.10;;;;;;;19.81;57.51;101956.81;5073577;28;20032;-69
2021/11/18 09:25:52;;;;;;;9.77;4.28;;;;;;;19.85;57.62;101955.00;5075974;28;20036;-68
2021/11/18 09:28:23;;;;;;;8.90;4.68;;;;;;;19.86;57.31;101955.00;5099459;28;20063;-69
2021/11/18 09:31:12;;;;;;;7.65;4.18;;;;;;;19.89;57.41;101959.44;5092583;28;20044;-69
2021/11/18 09:33:41;;;;;;;;;;;;;;;19.91;57.29;101954.97;5087005;28;20036;-69
2021/11/18 09:36:09;;;;;;;10.57;4.07;;;;;;;19.89;57.43;101952.31;5084748;28;19919;-69
2021/11/18 09:38:40;;;;;;;7.88;4.93;;;;;;;19.92;57.71;101945.16;5071310;28;20044;-69
2021/11/18 09:41:27;;;;;;;9.63;4.32;;;;;;;19.90;57.45;101945.16;5080616;28;20036;-69
2021/11/18 09:44:10;;;;;;;9.40;5.13;;;;;;;19.96;57.50;101944.22;5069986;28;20041;-69
2021/11/18 09:47:12;;;;;;;11.35;4.90;;;;;;;20.06;57.45;101941.53;5085893;28;20049;-69
2021/11/18 09:50:00;;;;;;;9.82;4.78;;;;;;;20.15;57.46;101941.47;5064562;28;20504;-69
2021/11/18 09:52:42;;;;;;;10.32;4.43;;;;;;;20.31;57.64;101928.88;5066418;28;20040;-69
2021/11/18 09:55:13;;;;;;;8.75;4.63;;;;;;;20.46;57.65;101934.19;5065322;28;20037;-69
2021/11/18 09:58:08;;;;;;;8.63;4.25;;;;;;;20.72;57.45;101925.06;5066914;28;20048;-69
2021/11/18 10:01:11;;;;;;;8.48;4.10;;;;;;;20.80;57.16;101926.81;5081369;28;20089;-69
2021/11/18 10:03:49;;;;;;;9.00;4.28;;;;;;;20.77;57.06;101917.88;5078045;28;20048;-69
2021/11/18 10:06:26;;;;;;;7.82;4.10;;;;;;;20.80;57.01;101918.75;5086668;28;20544;-69
2021/11/18 10:09:02;;;;;;;6.72;4.15;;;;;;;20.78;56.64;101920.53;5095180;28;20037;-69
2021/11/18 10:11:47;;;;;;;10.48;4.55;;;;;;;20.83;56.40;101917.81;5086281;28;20048;-69
2021/11/18 10:14:34;;;;;;;7.50;4.13;;;;;;;20.87;56.26;101919.59;5069104;28;20485;-69
2021/11/18 10:17:16;;;;;;;6.80;3.30;;;;;;;20.85;55.91;101916.00;5083704;28;20124;-70
2021/11/18 10:19:47;;;;;;;8.00;3.90;;;;;;;20.80;55.83;101912.50;5083292;28;20505;-69
2021/11/18 10:22:19;;;;;;;8.75;4.00;;;;;;;20.73;55.46;101917.00;5082370;28;20082;-70
2021/11/18 10:24:49;;;;;;;9.48;4.70;;;;;;;20.63;55.51;101910.81;5087932;28;20044;-69
2021/11/18 10:27:22;;;;;;;9.07;4.63;;;;;;;20.60;55.90;101912.63;5074974;28;20043;-69
2021/11/18 10:30:11;;;;;;;8.23;3.97;;;;;;;20.60;55.37;101909.97;5087688;28;20035;-69
2021/11/18 10:33:00;;;;;;;9.63;4.50;;;;;;;20.63;55.46;101913.50;5078490;28;20052;-69
2021/11/18 10:35:38;;;;;;;9.95;4.47;;;;;;;20.74;55.65;101917.91;5088230;28;20037;-69
2021/11/18 10:38:18;;;;;;;11.90;4.45;;;;;;;20.76;55.31;101910.72;5075927;28;20045;-69
2021/11/18 10:40:57;;;;;;;9.55;4.55;;;;;;;20.74;55.11;101913.44;5073915;28;20143;-69
2021/11/18 10:43:28;;;;;;;8.15;4.05;;;;;;;20.68;54.85;101908.06;5079179;28;20044;-69
2021/11/18 10:46:10;;;;;;;10.23;4.78;;;;;;;20.60;54.85;101905.47;5089296;28;20046;-68
2021/11/18 10:48:42;;;;;;;10.15;4.50;;;;;;;20.52;55.10;101910.00;5074124;28;20053;-69
2021/11/18 10:51:14;;;;;;;8.48;4.35;;;;;;;20.40;55.44;101902.03;5082353;28;20131;-69
2021/11/18 10:53:51;;;;;;;9.10;4.70;;;;;;;20.44;55.55;101898.44;5075534;28;20040;-69
2021/11/18 10:56:22;;;;;;;10.70;4.68;;;;;;;20.42;56.00;101897.53;5073055;28;20079;-68
2021/11/18 10:59:04;;;;;;;10.98;4.90;;;;;;;20.46;55.53;101895.75;5079760;28;20040;-68
2021/11/18 11:01:35;;;;;;;10.52;4.55;;;;;;;20.42;55.85;101889.50;5063748;28;20037;-69
2021/11/18 11:04:05;;;;;;;6.47;3.67;;;;;;;20.45;56.36;101886.78;5077807;28;20051;-68
2021/11/18 11:06:34;;;;;;;9.23;4.53;;;;;;;20.62;55.78;101883.97;5082009;28;20036;-69
2021/11/18 11:09:22;;;;;;;8.50;4.72;;;;;;;20.65;55.27;101887.53;5090178;28;20036;-70
2021/11/18 11:12:09;;;;;;;7.25;4.20;;;;;;;20.74;55.51;101883.91;5079654;28;20597;-69
2021/11/18 11:14:57;;;;;;;9.48;3.92;;;;;;;20.86;55.33;101870.38;5089568;28;20048;-69
2021/11/18 11:17:48;;;;;;;7.85;3.95;;;;;;;20.91;55.16;101883.75;5085435;28;20048;-69
2021/11/18 11:20:20;;;;;;;7.20;3.92;;;;;;;21.11;55.28;101873.72;5086986;28;20048;-68
2021/11/18 11:22:55;;;;;;;9.00;4.38;;;;;;;21.14;54.98;101873.66;5072606;28;20403;-69
2021/11/18 11:25:40;;;;;;;7.75;3.88;;;;;;;21.07;54.56;101872.84;5074953;27;20040;-69
2021/11/18 11:28:32;;;;;;;7.22;4.30;;;;;;;20.96;54.40;101869.38;5096030;28;20044;-69
2021/11/18 11:31:30;;;;;;;8.90;4.38;;;;;;;20.93;54.55;101865.84;5087348;28;20561;-69
2021/11/18 11:34:09;;;;;;;7.30;4.03;;;;;;;21.00;54.82;101865.75;5076043;28;20492;-69
2021/11/18 11:36:42;;;;;;;10.02;4.35;;;;;;;21.02;54.53;101863.94;5081847;28;20133;-69
2021/11/18 11:39:18;;;;;;;9.77;4.03;;;;;;;21.07;54.35;101870.16;5088813;28;20472;-69
2021/11/18 11:42:13;;;;;;;7.20;4.25;;;;;;;21.04;54.04;101862.13;5072792;28;20392;-69
2021/11/18 11:44:55;;;;;;;7.68;4.22;;;;;;;21.03;53.86;101857.66;5082284;28;20508;-69
2021/11/18 11:47:43;;;;;;;10.27;4.50;;;;;;;21.09;53.86;101848.66;5084602;28;20076;-68